sensor_id;sensor_type;location;lat;lon;timestamp;P1;durP1;ratioP1;P2;durP2;ratioP2
72408;SDS011;60402;48.082;11.628;2024-01-15T00:00:11;7.82;;;2.17;;
72408;SDS011;60402;48.082;11.628;2024-01-15T00:02:57;5.78;;;2.38;;
72408;SDS011;60402;48.082;11.628;2024-01-15T00:05:43;8.13;;;2.80;;
72408;SDS011;60402;48.082;11.628;2024-01-15T00:08:29;7.30;;;2.53;;
72408;SDS011;60402;48.082;11.628;2024-01-15T00:11:14;5.85;;;2.55;;
72408;SDS011;60402;48.082;11.628;2024-01-15T00:14:00;7.50;;;2.58;;
72408;SDS011;60402;48.082;11.628;2024-01-15T00:16:46;8.65;;;2.72;;
72408;SDS011;60402;48.082;11.628;2024-01-15T00:19:34;6.35;;;2.35;;
72408;SDS011;60402;48.082;11.628;2024-01-15T00:22:19;11.70;;;2.80;;
72408;SDS011;60402;48.082;11.628;2024-01-15T00:25:05;7.05;;;2.83;;
72408;SDS011;60402;48.082;11.628;2024-01-15T00:27:51;7.18;;;2.20;;
72408;SDS011;60402;48.082;11.628;2024-01-15T00:30:36;8.82;;;2.70;;
72408;SDS011;60402;48.082;11.628;2024-01-15T00:33:22;8.32;;;2.83;;
72408;SDS011;60402;48.082;11.628;2024-01-15T00:36:07;8.10;;;2.90;;
72408;SDS011;60402;48.082;11.628;2024-01-15T00:38:53;7.75;;;2.90;;
72408;SDS011;60402;48.082;11.628;2024-01-15T00:41:39;8.85;;;3.28;;
72408;SDS011;60402;48.082;11.628;2024-01-15T00:44:24;6.35;;;3.00;;
72408;SDS011;60402;48.082;11.628;2024-01-15T00:47:10;8.90;;;3.20;;
72408;SDS011;60402;48.082;11.628;2024-01-15T00:49:56;11.68;;;4.03;;
72408;SDS011;60402;48.082;11.628;2024-01-15T00:52:41;8.02;;;3.03;;
72408;SDS011;60402;48.082;11.628;2024-01-15T00:55:28;7.97;;;2.85;;
72408;SDS011;60402;48.082;11.628;2024-01-15T00:58:14;8.45;;;3.08;;
72408;SDS011;60402;48.082;11.628;2024-01-15T01:01:00;7.55;;;3.00;;
72408;SDS011;60402;48.082;11.628;2024-01-15T01:03:45;8.23;;;3.45;;
72408;SDS011;60402;48.082;11.628;2024-01-15T01:06:31;11.75;;;4.28;;
72408;SDS011;60402;48.082;11.628;2024-01-15T01:09:16;14.20;;;4.85;;
72408;SDS011;60402;48.082;11.628;2024-01-15T01:12:02;10.10;;;4.07;;
72408;SDS011;60402;48.082;11.628;2024-01-15T01:14:48;8.77;;;3.67;;
72408;SDS011;60402;48.082;11.628;2024-01-15T01:17:34;9.73;;;3.40;;
72408;SDS011;60402;48.082;11.628;2024-01-15T01:20:19;10.38;;;3.28;;
72408;SDS011;60402;48.082;11.628;2024-01-15T01:23:05;9.52;;;3.78;;
72408;SDS011;60402;48.082;11.628;2024-01-15T01:25:51;8.15;;;3.53;;
72408;SDS011;60402;48.082;11.628;2024-01-15T01:28:36;9.23;;;4.40;;
72408;SDS011;60402;48.082;11.628;2024-01-15T01:31:23;11.05;;;4.70;;
72408;SDS011;60402;48.082;11.628;2024-01-15T01:34:08;9.80;;;4.18;;
72408;SDS011;60402;48.082;11.628;2024-01-15T01:36:54;10.80;;;4.60;;
72408;SDS011;60402;48.082;11.628;2024-01-15T01:39:40;9.27;;;4.30;;
72408;SDS011;60402;48.082;11.628;2024-01-15T01:42:26;14.60;;;5.35;;
72408;SDS011;60402;48.082;11.628;2024-01-15T01:45:12;14.48;;;4.88;;
72408;SDS011;60402;48.082;11.628;2024-01-15T01:47:58;9.90;;;4.10;;
72408;SDS011;60402;48.082;11.628;2024-01-15T01:50:44;12.57;;;4.95;;
72408;SDS011;60402;48.082;11.628;2024-01-15T01:53:29;10.77;;;3.90;;
72408;SDS011;60402;48.082;11.628;2024-01-15T01:56:18;13.05;;;4.88;;
72408;SDS011;60402;48.082;11.628;2024-01-15T01:59:04;10.38;;;4.00;;
72408;SDS011;60402;48.082;11.628;2024-01-15T02:01:56;11.02;;;4.07;;
72408;SDS011;60402;48.082;11.628;2024-01-15T02:04:42;11.25;;;4.68;;
72408;SDS011;60402;48.082;11.628;2024-01-15T02:07:28;12.60;;;4.38;;
72408;SDS011;60402;48.082;11.628;2024-01-15T02:10:14;14.23;;;5.32;;
72408;SDS011;60402;48.082;11.628;2024-01-15T02:13:00;14.90;;;5.70;;
72408;SDS011;60402;48.082;11.628;2024-01-15T02:15:45;12.73;;;5.43;;
72408;SDS011;60402;48.082;11.628;2024-01-15T02:18:40;11.18;;;4.35;;
72408;SDS011;60402;48.082;11.628;2024-01-15T02:24:14;11.00;;;4.35;;
72408;SDS011;60402;48.082;11.628;2024-01-15T02:26:59;13.70;;;5.57;;
72408;SDS011;60402;48.082;11.628;2024-01-15T02:29:45;11.27;;;4.93;;
72408;SDS011;60402;48.082;11.628;2024-01-15T02:32:31;13.10;;;4.97;;
72408;SDS011;60402;48.082;11.628;2024-01-15T02:35:17;11.48;;;4.05;;
72408;SDS011;60402;48.082;11.628;2024-01-15T02:38:03;10.43;;;4.15;;
72408;SDS011;60402;48.082;11.628;2024-01-15T02:40:52;11.23;;;4.60;;
72408;SDS011;60402;48.082;11.628;2024-01-15T02:43:37;12.10;;;5.55;;
72408;SDS011;60402;48.082;11.628;2024-01-15T02:46:23;9.45;;;3.92;;
72408;SDS011;60402;48.082;11.628;2024-01-15T02:49:09;10.65;;;4.07;;
72408;SDS011;60402;48.082;11.628;2024-01-15T02:51:54;11.85;;;4.55;;
72408;SDS011;60402;48.082;11.628;2024-01-15T02:54:40;9.23;;;3.72;;
72408;SDS011;60402;48.082;11.628;2024-01-15T02:57:25;9.70;;;3.78;;
72408;SDS011;60402;48.082;11.628;2024-01-15T03:00:11;10.32;;;3.67;;
72408;SDS011;60402;48.082;11.628;2024-01-15T03:02:57;11.18;;;4.55;;
72408;SDS011;60402;48.082;11.628;2024-01-15T03:05:43;11.98;;;4.38;;
72408;SDS011;60402;48.082;11.628;2024-01-15T03:08:28;11.07;;;4.50;;
72408;SDS011;60402;48.082;11.628;2024-01-15T03:11:14;12.90;;;4.07;;
72408;SDS011;60402;48.082;11.628;2024-01-15T03:14:00;11.13;;;4.18;;
72408;SDS011;60402;48.082;11.628;2024-01-15T03:16:45;10.43;;;4.38;;
72408;SDS011;60402;48.082;11.628;2024-01-15T03:19:34;11.63;;;4.30;;
72408;SDS011;60402;48.082;11.628;2024-01-15T03:22:20;10.15;;;4.25;;
72408;SDS011;60402;48.082;11.628;2024-01-15T03:25:06;10.13;;;4.28;;
72408;SDS011;60402;48.082;11.628;2024-01-15T03:27:52;10.90;;;3.53;;
72408;SDS011;60402;48.082;11.628;2024-01-15T03:30:37;7.70;;;2.63;;
72408;SDS011;60402;48.082;11.628;2024-01-15T03:33:23;10.85;;;3.25;;
72408;SDS011;60402;48.082;11.628;2024-01-15T03:36:09;9.82;;;3.42;;
72408;SDS011;60402;48.082;11.628;2024-01-15T03:38:56;7.78;;;3.78;;
72408;SDS011;60402;48.082;11.628;2024-01-15T03:41:41;9.60;;;3.70;;
72408;SDS011;60402;48.082;11.628;2024-01-15T03:44:27;9.15;;;3.45;;
72408;SDS011;60402;48.082;11.628;2024-01-15T03:47:13;7.57;;;3.53;;
72408;SDS011;60402;48.082;11.628;2024-01-15T03:49:58;8.85;;;3.63;;
72408;SDS011;60402;48.082;11.628;2024-01-15T03:52:44;9.93;;;3.70;;
72408;SDS011;60402;48.082;11.628;2024-01-15T03:55:29;12.95;;;3.55;;
72408;SDS011;60402;48.082;11.628;2024-01-15T03:58:15;9.10;;;3.55;;
72408;SDS011;60402;48.082;11.628;2024-01-15T04:01:01;9.50;;;3.95;;
72408;SDS011;60402;48.082;11.628;2024-01-15T04:03:46;9.43;;;3.58;;
72408;SDS011;60402;48.082;11.628;2024-01-15T04:06:32;6.88;;;3.40;;
72408;SDS011;60402;48.082;11.628;2024-01-15T04:09:18;7.78;;;3.03;;
72408;SDS011;60402;48.082;11.628;2024-01-15T04:12:03;7.22;;;3.10;;
72408;SDS011;60402;48.082;11.628;2024-01-15T04:14:49;13.52;;;3.25;;
72408;SDS011;60402;48.082;11.628;2024-01-15T04:17:35;7.72;;;2.85;;
72408;SDS011;60402;48.082;11.628;2024-01-15T04:20:21;9.57;;;3.30;;
72408;SDS011;60402;48.082;11.628;2024-01-15T04:23:06;7.95;;;3.08;;
72408;SDS011;60402;48.082;11.628;2024-01-15T04:25:52;8.93;;;2.85;;
72408;SDS011;60402;48.082;11.628;2024-01-15T04:28:37;8.75;;;3.35;;
72408;SDS011;60402;48.082;11.628;2024-01-15T04:31:23;9.93;;;2.80;;
72408;SDS011;60402;48.082;11.628;2024-01-15T04:34:10;9.73;;;3.55;;
72408;SDS011;60402;48.082;11.628;2024-01-15T04:36:55;10.90;;;3.28;;
72408;SDS011;60402;48.082;11.628;2024-01-15T04:39:41;7.60;;;3.13;;
72408;SDS011;60402;48.082;11.628;2024-01-15T04:42:26;7.78;;;3.28;;
72408;SDS011;60402;48.082;11.628;2024-01-15T04:45:12;7.88;;;2.72;;
72408;SDS011;60402;48.082;11.628;2024-01-15T04:47:58;7.13;;;2.55;;
72408;SDS011;60402;48.082;11.628;2024-01-15T04:50:44;10.40;;;3.08;;
72408;SDS011;60402;48.082;11.628;2024-01-15T04:53:29;8.18;;;3.40;;
72408;SDS011;60402;48.082;11.628;2024-01-15T04:56:15;7.63;;;2.60;;
72408;SDS011;60402;48.082;11.628;2024-01-15T04:59:00;7.45;;;3.20;;
72408;SDS011;60402;48.082;11.628;2024-01-15T05:01:46;8.80;;;3.30;;
72408;SDS011;60402;48.082;11.628;2024-01-15T05:04:34;8.05;;;2.88;;
72408;SDS011;60402;48.082;11.628;2024-01-15T05:07:19;9.13;;;3.15;;
72408;SDS011;60402;48.082;11.628;2024-01-15T05:10:05;6.72;;;2.60;;
72408;SDS011;60402;48.082;11.628;2024-01-15T05:12:52;8.32;;;2.40;;
72408;SDS011;60402;48.082;11.628;2024-01-15T05:15:38;8.50;;;2.85;;
72408;SDS011;60402;48.082;11.628;2024-01-15T05:18:24;5.32;;;2.22;;
72408;SDS011;60402;48.082;11.628;2024-01-15T05:21:10;7.00;;;2.50;;
72408;SDS011;60402;48.082;11.628;2024-01-15T05:23:55;6.53;;;2.60;;
72408;SDS011;60402;48.082;11.628;2024-01-15T05:26:41;7.38;;;2.60;;
72408;SDS011;60402;48.082;11.628;2024-01-15T05:29:27;8.70;;;2.38;;
72408;SDS011;60402;48.082;11.628;2024-01-15T05:32:13;7.40;;;2.50;;
72408;SDS011;60402;48.082;11.628;2024-01-15T05:34:58;8.48;;;2.80;;
72408;SDS011;60402;48.082;11.628;2024-01-15T05:37:45;7.22;;;2.88;;
72408;SDS011;60402;48.082;11.628;2024-01-15T05:40:31;7.35;;;2.53;;
72408;SDS011;60402;48.082;11.628;2024-01-15T05:43:16;7.60;;;2.60;;
72408;SDS011;60402;48.082;11.628;2024-01-15T05:46:02;6.65;;;2.83;;
72408;SDS011;60402;48.082;11.628;2024-01-15T05:48:48;7.18;;;2.65;;
72408;SDS011;60402;48.082;11.628;2024-01-15T05:51:33;9.25;;;2.78;;
72408;SDS011;60402;48.082;11.628;2024-01-15T05:54:19;8.00;;;2.33;;
72408;SDS011;60402;48.082;11.628;2024-01-15T05:57:08;7.28;;;2.83;;
72408;SDS011;60402;48.082;11.628;2024-01-15T05:59:54;8.02;;;2.97;;
72408;SDS011;60402;48.082;11.628;2024-01-15T06:02:39;6.57;;;2.20;;
72408;SDS011;60402;48.082;11.628;2024-01-15T06:05:25;5.90;;;2.42;;
72408;SDS011;60402;48.082;11.628;2024-01-15T06:08:11;7.88;;;2.78;;
72408;SDS011;60402;48.082;11.628;2024-01-15T06:10:57;8.88;;;2.42;;
72408;SDS011;60402;48.082;11.628;2024-01-15T06:13:42;8.95;;;3.35;;
72408;SDS011;60402;48.082;11.628;2024-01-15T06:16:28;8.68;;;2.63;;
72408;SDS011;60402;48.082;11.628;2024-01-15T06:19:14;4.85;;;2.03;;
72408;SDS011;60402;48.082;11.628;2024-01-15T06:22:00;6.70;;;2.60;;
72408;SDS011;60402;48.082;11.628;2024-01-15T06:24:45;5.30;;;2.42;;
72408;SDS011;60402;48.082;11.628;2024-01-15T06:27:31;7.55;;;2.75;;
72408;SDS011;60402;48.082;11.628;2024-01-15T06:30:17;8.30;;;2.80;;
72408;SDS011;60402;48.082;11.628;2024-01-15T06:33:02;8.40;;;2.78;;
72408;SDS011;60402;48.082;11.628;2024-01-15T06:35:49;7.07;;;2.75;;
72408;SDS011;60402;48.082;11.628;2024-01-15T06:38:35;7.55;;;2.65;;
72408;SDS011;60402;48.082;11.628;2024-01-15T06:41:21;7.65;;;2.78;;
72408;SDS011;60402;48.082;11.628;2024-01-15T06:44:07;7.55;;;2.70;;
72408;SDS011;60402;48.082;11.628;2024-01-15T06:46:53;7.30;;;3.00;;
72408;SDS011;60402;48.082;11.628;2024-01-15T06:49:42;8.88;;;2.83;;
72408;SDS011;60402;48.082;11.628;2024-01-15T06:52:28;5.20;;;2.20;;
72408;SDS011;60402;48.082;11.628;2024-01-15T06:55:14;5.85;;;2.20;;
72408;SDS011;60402;48.082;11.628;2024-01-15T06:57:59;7.30;;;2.70;;
72408;SDS011;60402;48.082;11.628;2024-01-15T07:00:45;5.60;;;2.45;;
72408;SDS011;60402;48.082;11.628;2024-01-15T07:03:31;7.40;;;2.60;;
72408;SDS011;60402;48.082;11.628;2024-01-15T07:06:16;10.27;;;3.33;;
72408;SDS011;60402;48.082;11.628;2024-01-15T07:09:02;7.47;;;2.92;;
72408;SDS011;60402;48.082;11.628;2024-01-15T07:11:48;6.00;;;2.53;;
72408;SDS011;60402;48.082;11.628;2024-01-15T07:14:33;8.43;;;3.17;;
72408;SDS011;60402;48.082;11.628;2024-01-15T07:17:19;9.50;;;2.70;;
72408;SDS011;60402;48.082;11.628;2024-01-15T07:20:06;9.20;;;2.65;;
72408;SDS011;60402;48.082;11.628;2024-01-15T07:22:53;6.60;;;2.35;;
72408;SDS011;60402;48.082;11.628;2024-01-15T07:25:43;7.90;;;2.90;;
72408;SDS011;60402;48.082;11.628;2024-01-15T07:28:29;7.00;;;2.45;;
72408;SDS011;60402;48.082;11.628;2024-01-15T07:31:15;6.63;;;1.85;;
72408;SDS011;60402;48.082;11.628;2024-01-15T07:34:02;9.20;;;2.90;;
72408;SDS011;60402;48.082;11.628;2024-01-15T07:36:48;6.70;;;2.78;;
72408;SDS011;60402;48.082;11.628;2024-01-15T07:39:33;8.15;;;2.83;;
72408;SDS011;60402;48.082;11.628;2024-01-15T07:42:20;6.45;;;2.65;;
72408;SDS011;60402;48.082;11.628;2024-01-15T07:45:05;8.98;;;2.70;;
72408;SDS011;60402;48.082;11.628;2024-01-15T07:47:51;8.65;;;3.28;;
72408;SDS011;60402;48.082;11.628;2024-01-15T07:50:37;6.80;;;2.90;;
72408;SDS011;60402;48.082;11.628;2024-01-15T07:53:23;8.50;;;3.10;;
72408;SDS011;60402;48.082;11.628;2024-01-15T07:56:08;7.93;;;2.65;;
72408;SDS011;60402;48.082;11.628;2024-01-15T07:58:54;7.72;;;2.83;;
72408;SDS011;60402;48.082;11.628;2024-01-15T08:01:41;9.98;;;3.47;;
72408;SDS011;60402;48.082;11.628;2024-01-15T08:04:27;9.63;;;2.78;;
72408;SDS011;60402;48.082;11.628;2024-01-15T08:07:12;9.23;;;2.65;;
72408;SDS011;60402;48.082;11.628;2024-01-15T08:09:58;8.30;;;3.05;;
72408;SDS011;60402;48.082;11.628;2024-01-15T08:12:44;7.68;;;3.05;;
72408;SDS011;60402;48.082;11.628;2024-01-15T08:15:29;8.82;;;3.25;;
72408;SDS011;60402;48.082;11.628;2024-01-15T08:18:15;8.10;;;2.85;;
72408;SDS011;60402;48.082;11.628;2024-01-15T08:21:01;7.95;;;2.83;;
72408;SDS011;60402;48.082;11.628;2024-01-15T08:23:48;8.68;;;3.22;;
72408;SDS011;60402;48.082;11.628;2024-01-15T08:26:33;8.98;;;2.72;;
72408;SDS011;60402;48.082;11.628;2024-01-15T08:29:19;7.45;;;2.90;;
72408;SDS011;60402;48.082;11.628;2024-01-15T08:32:06;7.25;;;2.95;;
72408;SDS011;60402;48.082;11.628;2024-01-15T08:34:52;9.25;;;3.17;;
72408;SDS011;60402;48.082;11.628;2024-01-15T08:37:38;6.78;;;2.47;;
72408;SDS011;60402;48.082;11.628;2024-01-15T08:40:24;12.40;;;3.20;;
72408;SDS011;60402;48.082;11.628;2024-01-15T08:43:09;6.50;;;2.67;;
72408;SDS011;60402;48.082;11.628;2024-01-15T08:45:55;6.95;;;2.67;;
72408;SDS011;60402;48.082;11.628;2024-01-15T08:48:41;7.93;;;3.17;;
72408;SDS011;60402;48.082;11.628;2024-01-15T08:51:26;7.60;;;3.03;;
72408;SDS011;60402;48.082;11.628;2024-01-15T08:54:12;10.80;;;3.45;;
72408;SDS011;60402;48.082;11.628;2024-01-15T08:56:58;8.38;;;2.22;;
72408;SDS011;60402;48.082;11.628;2024-01-15T08:59:44;7.72;;;2.95;;
72408;SDS011;60402;48.082;11.628;2024-01-15T09:02:30;9.77;;;3.17;;
72408;SDS011;60402;48.082;11.628;2024-01-15T09:05:16;8.63;;;3.28;;
72408;SDS011;60402;48.082;11.628;2024-01-15T09:08:02;7.40;;;3.13;;
72408;SDS011;60402;48.082;11.628;2024-01-15T09:10:47;7.95;;;2.72;;
72408;SDS011;60402;48.082;11.628;2024-01-15T09:13:33;8.75;;;2.75;;
72408;SDS011;60402;48.082;11.628;2024-01-15T09:16:19;9.27;;;3.17;;
72408;SDS011;60402;48.082;11.628;2024-01-15T09:19:04;7.63;;;2.95;;
72408;SDS011;60402;48.082;11.628;2024-01-15T09:21:50;9.07;;;3.53;;
72408;SDS011;60402;48.082;11.628;2024-01-15T09:24:36;6.68;;;2.38;;
72408;SDS011;60402;48.082;11.628;2024-01-15T09:27:21;9.65;;;4.13;;
72408;SDS011;60402;48.082;11.628;2024-01-15T09:30:07;8.30;;;3.03;;
72408;SDS011;60402;48.082;11.628;2024-01-15T09:32:55;6.53;;;2.47;;
72408;SDS011;60402;48.082;11.628;2024-01-15T09:35:40;8.02;;;2.83;;
72408;SDS011;60402;48.082;11.628;2024-01-15T09:38:26;9.20;;;2.60;;
72408;SDS011;60402;48.082;11.628;2024-01-15T09:41:12;8.23;;;2.75;;
72408;SDS011;60402;48.082;11.628;2024-01-15T09:43:57;8.15;;;2.85;;
72408;SDS011;60402;48.082;11.628;2024-01-15T09:46:43;8.20;;;2.70;;
72408;SDS011;60402;48.082;11.628;2024-01-15T09:49:29;7.32;;;2.20;;
72408;SDS011;60402;48.082;11.628;2024-01-15T09:52:15;6.63;;;2.70;;
72408;SDS011;60402;48.082;11.628;2024-01-15T09:55:04;7.32;;;2.58;;
72408;SDS011;60402;48.082;11.628;2024-01-15T09:57:50;5.75;;;2.28;;
72408;SDS011;60402;48.082;11.628;2024-01-15T10:00:38;10.85;;;2.50;;
72408;SDS011;60402;48.082;11.628;2024-01-15T10:03:26;6.93;;;2.72;;
72408;SDS011;60402;48.082;11.628;2024-01-15T10:06:15;6.10;;;2.25;;
72408;SDS011;60402;48.082;11.628;2024-01-15T10:09:04;5.10;;;2.50;;
72408;SDS011;60402;48.082;11.628;2024-01-15T10:11:50;6.93;;;2.72;;
72408;SDS011;60402;48.082;11.628;2024-01-15T10:14:36;5.60;;;2.25;;
72408;SDS011;60402;48.082;11.628;2024-01-15T10:17:22;8.60;;;2.45;;
72408;SDS011;60402;48.082;11.628;2024-01-15T10:20:10;6.43;;;3.13;;
72408;SDS011;60402;48.082;11.628;2024-01-15T10:22:57;7.45;;;2.03;;
72408;SDS011;60402;48.082;11.628;2024-01-15T10:25:42;5.28;;;2.17;;
72408;SDS011;60402;48.082;11.628;2024-01-15T10:28:28;6.63;;;2.20;;
72408;SDS011;60402;48.082;11.628;2024-01-15T10:31:15;7.55;;;2.47;;
72408;SDS011;60402;48.082;11.628;2024-01-15T10:34:10;5.00;;;1.70;;
72408;SDS011;60402;48.082;11.628;2024-01-15T10:37:01;4.65;;;2.05;;
72408;SDS011;60402;48.082;11.628;2024-01-15T10:39:48;5.50;;;1.95;;
72408;SDS011;60402;48.082;11.628;2024-01-15T10:42:33;6.50;;;2.10;;
72408;SDS011;60402;48.082;11.628;2024-01-15T10:45:19;5.38;;;2.00;;
72408;SDS011;60402;48.082;11.628;2024-01-15T10:48:05;5.07;;;2.05;;
72408;SDS011;60402;48.082;11.628;2024-01-15T10:50:51;5.53;;;1.75;;
72408;SDS011;60402;48.082;11.628;2024-01-15T10:53:38;4.40;;;1.70;;
72408;SDS011;60402;48.082;11.628;2024-01-15T10:56:27;4.97;;;1.92;;
72408;SDS011;60402;48.082;11.628;2024-01-15T10:59:15;6.75;;;2.03;;
72408;SDS011;60402;48.082;11.628;2024-01-15T11:02:01;3.10;;;1.50;;
72408;SDS011;60402;48.082;11.628;2024-01-15T11:04:47;4.15;;;1.73;;
72408;SDS011;60402;48.082;11.628;2024-01-15T11:07:32;4.63;;;1.45;;
72408;SDS011;60402;48.082;11.628;2024-01-15T11:16:17;3.30;;;1.30;;
72408;SDS011;60402;48.082;11.628;2024-01-15T11:19:03;4.78;;;1.48;;
72408;SDS011;60402;48.082;11.628;2024-01-15T11:21:51;5.95;;;1.80;;
72408;SDS011;60402;48.082;11.628;2024-01-15T11:24:41;3.83;;;1.35;;
72408;SDS011;60402;48.082;11.628;2024-01-15T11:27:39;3.58;;;1.40;;
72408;SDS011;60402;48.082;11.628;2024-01-15T11:30:27;3.10;;;1.35;;
72408;SDS011;60402;48.082;11.628;2024-01-15T11:39:39;3.38;;;1.27;;
72408;SDS011;60402;48.082;11.628;2024-01-15T11:42:25;4.35;;;1.50;;
72408;SDS011;60402;48.082;11.628;2024-01-15T11:45:11;3.90;;;1.58;;
72408;SDS011;60402;48.082;11.628;2024-01-15T11:48:12;4.05;;;1.08;;
72408;SDS011;60402;48.082;11.628;2024-01-15T11:50:59;3.35;;;1.50;;
72408;SDS011;60402;48.082;11.628;2024-01-15T11:53:47;2.67;;;1.42;;
72408;SDS011;60402;48.082;11.628;2024-01-15T11:56:34;2.60;;;1.17;;
72408;SDS011;60402;48.082;11.628;2024-01-15T11:59:20;4.65;;;1.30;;
72408;SDS011;60402;48.082;11.628;2024-01-15T12:02:14;4.75;;;1.90;;
72408;SDS011;60402;48.082;11.628;2024-01-15T12:04:59;3.63;;;1.40;;
72408;SDS011;60402;48.082;11.628;2024-01-15T12:07:46;5.53;;;1.45;;
72408;SDS011;60402;48.082;11.628;2024-01-15T12:10:33;4.03;;;1.73;;
72408;SDS011;60402;48.082;11.628;2024-01-15T12:13:19;2.85;;;1.10;;
72408;SDS011;60402;48.082;11.628;2024-01-15T12:16:05;3.92;;;1.40;;
72408;SDS011;60402;48.082;11.628;2024-01-15T12:18:51;3.90;;;1.88;;
72408;SDS011;60402;48.082;11.628;2024-01-15T12:21:39;1.75;;;0.90;;
72408;SDS011;60402;48.082;11.628;2024-01-15T12:24:24;4.40;;;1.40;;
72408;SDS011;60402;48.082;11.628;2024-01-15T12:27:10;5.47;;;1.42;;
72408;SDS011;60402;48.082;11.628;2024-01-15T12:29:57;4.38;;;1.50;;
72408;SDS011;60402;48.082;11.628;2024-01-15T12:32:44;3.00;;;1.50;;
72408;SDS011;60402;48.082;11.628;2024-01-15T12:35:30;2.97;;;1.15;;
72408;SDS011;60402;48.082;11.628;2024-01-15T12:38:18;2.75;;;1.15;;
72408;SDS011;60402;48.082;11.628;2024-01-15T12:41:04;3.92;;;1.38;;
72408;SDS011;60402;48.082;11.628;2024-01-15T12:43:50;3.20;;;1.42;;
72408;SDS011;60402;48.082;11.628;2024-01-15T12:46:36;2.72;;;1.30;;
72408;SDS011;60402;48.082;11.628;2024-01-15T12:49:23;2.42;;;1.20;;
72408;SDS011;60402;48.082;11.628;2024-01-15T12:52:09;2.47;;;1.00;;
72408;SDS011;60402;48.082;11.628;2024-01-15T12:54:56;3.70;;;1.40;;
72408;SDS011;60402;48.082;11.628;2024-01-15T12:57:41;3.67;;;1.30;;
72408;SDS011;60402;48.082;11.628;2024-01-15T13:00:27;4.13;;;1.40;;
72408;SDS011;60402;48.082;11.628;2024-01-15T13:03:13;3.30;;;1.33;;
72408;SDS011;60402;48.082;11.628;2024-01-15T13:05:58;5.20;;;1.50;;
72408;SDS011;60402;48.082;11.628;2024-01-15T13:08:44;3.92;;;1.70;;
72408;SDS011;60402;48.082;11.628;2024-01-15T13:11:30;2.83;;;1.35;;
72408;SDS011;60402;48.082;11.628;2024-01-15T13:14:16;4.95;;;1.50;;
72408;SDS011;60402;48.082;11.628;2024-01-15T13:17:02;5.03;;;1.50;;
72408;SDS011;60402;48.082;11.628;2024-01-15T13:19:48;5.95;;;1.80;;
72408;SDS011;60402;48.082;11.628;2024-01-15T13:22:34;4.63;;;1.58;;
72408;SDS011;60402;48.082;11.628;2024-01-15T13:25:20;5.53;;;1.90;;
72408;SDS011;60402;48.082;11.628;2024-01-15T13:28:06;4.05;;;1.45;;
72408;SDS011;60402;48.082;11.628;2024-01-15T13:30:51;5.72;;;1.92;;
72408;SDS011;60402;48.082;11.628;2024-01-15T13:33:38;5.72;;;2.00;;
72408;SDS011;60402;48.082;11.628;2024-01-15T13:36:24;5.82;;;2.00;;
72408;SDS011;60402;48.082;11.628;2024-01-15T13:39:10;6.35;;;1.80;;
72408;SDS011;60402;48.082;11.628;2024-01-15T13:41:56;5.28;;;1.90;;
72408;SDS011;60402;48.082;11.628;2024-01-15T13:44:41;4.75;;;1.77;;
72408;SDS011;60402;48.082;11.628;2024-01-15T13:47:27;5.53;;;1.75;;
72408;SDS011;60402;48.082;11.628;2024-01-15T13:50:13;5.57;;;1.70;;
72408;SDS011;60402;48.082;11.628;2024-01-15T13:52:59;5.15;;;2.45;;
72408;SDS011;60402;48.082;11.628;2024-01-15T13:55:44;5.07;;;1.90;;
72408;SDS011;60402;48.082;11.628;2024-01-15T13:58:30;5.72;;;2.35;;
72408;SDS011;60402;48.082;11.628;2024-01-15T14:01:16;3.70;;;1.67;;
72408;SDS011;60402;48.082;11.628;2024-01-15T14:04:06;4.20;;;1.70;;
72408;SDS011;60402;48.082;11.628;2024-01-15T14:06:52;4.00;;;1.40;;
72408;SDS011;60402;48.082;11.628;2024-01-15T14:09:37;5.43;;;1.67;;
72408;SDS011;60402;48.082;11.628;2024-01-15T14:12:23;5.13;;;1.90;;
72408;SDS011;60402;48.082;11.628;2024-01-15T14:15:08;5.43;;;1.90;;
72408;SDS011;60402;48.082;11.628;2024-01-15T14:17:54;4.43;;;1.63;;
72408;SDS011;60402;48.082;11.628;2024-01-15T14:20:40;4.72;;;1.98;;
72408;SDS011;60402;48.082;11.628;2024-01-15T14:23:26;4.43;;;1.52;;
72408;SDS011;60402;48.082;11.628;2024-01-15T14:26:12;3.25;;;1.77;;
72408;SDS011;60402;48.082;11.628;2024-01-15T14:28:57;5.18;;;1.67;;
72408;SDS011;60402;48.082;11.628;2024-01-15T14:31:46;5.78;;;1.50;;
72408;SDS011;60402;48.082;11.628;2024-01-15T14:34:32;5.45;;;1.90;;
72408;SDS011;60402;48.082;11.628;2024-01-15T14:37:17;4.50;;;1.60;;
72408;SDS011;60402;48.082;11.628;2024-01-15T14:40:04;4.20;;;1.60;;
72408;SDS011;60402;48.082;11.628;2024-01-15T14:42:52;4.88;;;1.65;;
72408;SDS011;60402;48.082;11.628;2024-01-15T14:45:38;5.13;;;1.77;;
72408;SDS011;60402;48.082;11.628;2024-01-15T14:48:23;4.20;;;1.83;;
72408;SDS011;60402;48.082;11.628;2024-01-15T14:51:10;4.45;;;1.65;;
72408;SDS011;60402;48.082;11.628;2024-01-15T14:53:56;5.22;;;1.70;;
72408;SDS011;60402;48.082;11.628;2024-01-15T14:56:41;4.72;;;1.50;;
72408;SDS011;60402;48.082;11.628;2024-01-15T14:59:28;3.90;;;1.60;;
72408;SDS011;60402;48.082;11.628;2024-01-15T15:02:15;4.25;;;1.63;;
72408;SDS011;60402;48.082;11.628;2024-01-15T15:05:01;4.03;;;1.50;;
72408;SDS011;60402;48.082;11.628;2024-01-15T15:07:47;4.90;;;1.80;;
72408;SDS011;60402;48.082;11.628;2024-01-15T15:10:33;6.20;;;1.70;;
72408;SDS011;60402;48.082;11.628;2024-01-15T15:13:18;3.63;;;1.50;;
72408;SDS011;60402;48.082;11.628;2024-01-15T15:16:04;4.22;;;1.38;;
72408;SDS011;60402;48.082;11.628;2024-01-15T15:18:51;4.07;;;1.77;;
72408;SDS011;60402;48.082;11.628;2024-01-15T15:21:36;4.75;;;1.50;;
72408;SDS011;60402;48.082;11.628;2024-01-15T15:24:23;5.50;;;1.65;;
72408;SDS011;60402;48.082;11.628;2024-01-15T15:27:08;4.10;;;1.67;;
72408;SDS011;60402;48.082;11.628;2024-01-15T15:29:54;4.47;;;1.60;;
72408;SDS011;60402;48.082;11.628;2024-01-15T15:32:40;4.28;;;1.52;;
72408;SDS011;60402;48.082;11.628;2024-01-15T15:35:25;4.32;;;1.70;;
72408;SDS011;60402;48.082;11.628;2024-01-15T15:38:11;3.90;;;1.65;;
72408;SDS011;60402;48.082;11.628;2024-01-15T15:40:57;3.67;;;1.45;;
72408;SDS011;60402;48.082;11.628;2024-01-15T15:43:43;4.70;;;1.85;;
72408;SDS011;60402;48.082;11.628;2024-01-15T15:46:29;4.15;;;1.42;;
72408;SDS011;60402;48.082;11.628;2024-01-15T15:49:15;4.50;;;1.50;;
72408;SDS011;60402;48.082;11.628;2024-01-15T15:52:00;4.35;;;1.67;;
72408;SDS011;60402;48.082;11.628;2024-01-15T15:54:46;4.18;;;1.65;;
72408;SDS011;60402;48.082;11.628;2024-01-15T15:57:31;3.90;;;2.40;;
72408;SDS011;60402;48.082;11.628;2024-01-15T16:00:17;3.67;;;1.30;;
72408;SDS011;60402;48.082;11.628;2024-01-15T16:03:03;4.50;;;2.20;;
72408;SDS011;60402;48.082;11.628;2024-01-15T16:05:49;3.58;;;1.38;;
72408;SDS011;60402;48.082;11.628;2024-01-15T16:08:35;5.53;;;2.17;;
72408;SDS011;60402;48.082;11.628;2024-01-15T16:11:21;4.97;;;1.27;;
72408;SDS011;60402;48.082;11.628;2024-01-15T16:14:08;4.38;;;1.90;;
72408;SDS011;60402;48.082;11.628;2024-01-15T16:16:55;5.15;;;2.00;;
72408;SDS011;60402;48.082;11.628;2024-01-15T16:19:42;4.95;;;1.98;;
72408;SDS011;60402;48.082;11.628;2024-01-15T16:22:28;6.57;;;1.85;;
72408;SDS011;60402;48.082;11.628;2024-01-15T16:25:14;5.28;;;2.30;;
72408;SDS011;60402;48.082;11.628;2024-01-15T16:27:59;8.95;;;2.00;;
72408;SDS011;60402;48.082;11.628;2024-01-15T16:30:45;5.03;;;2.53;;
72408;SDS011;60402;48.082;11.628;2024-01-15T16:33:30;7.18;;;2.63;;
72408;SDS011;60402;48.082;11.628;2024-01-15T16:36:16;7.45;;;2.72;;
72408;SDS011;60402;48.082;11.628;2024-01-15T16:39:02;4.45;;;2.00;;